createdAt,value
2018-09-12T00:00:00.883Z,52.12
2018-09-12T00:02:30.585Z,51.75
2018-09-12T00:05:00.513Z,51.93
2018-09-12T00:07:30.212Z,52.20
2018-09-12T00:09:59.888Z,52.34
2018-09-12T00:12:29.623Z,52.72
2018-09-12T00:14:59.298Z,52.75
2018-09-12T00:17:29.019Z,53.05
2018-09-12T00:19:58.697Z,53.29
2018-09-12T00:22:28.343Z,53.40
2018-09-12T00:24:58.106Z,53.57
2018-09-12T00:27:27.752Z,53.56
2018-09-12T00:29:57.442Z,53.51
2018-09-12T00:32:27.109Z,53.87
2018-09-12T00:34:56.797Z,53.79
2018-09-12T00:37:26.495Z,53.95
2018-09-12T00:39:56.185Z,53.62
2018-09-12T00:42:25.964Z,54.04
2018-09-12T00:44:55.634Z,54.03
2018-09-12T00:47:25.349Z,54.06
2018-09-12T00:49:55.026Z,54.15
2018-09-12T00:52:24.688Z,53.89
2018-09-12T00:54:54.387Z,54.51
2018-09-12T00:57:24.049Z,54.58
2018-09-12T00:59:53.713Z,54.84
2018-09-12T01:02:23.526Z,54.88
2018-09-12T01:04:53.239Z,54.94
2018-09-12T01:07:22.940Z,54.92
2018-09-12T01:09:52.686Z,55.05
2018-09-12T01:12:22.409Z,54.82
2018-09-12T01:14:52.098Z,54.77
2018-09-12T01:17:21.757Z,54.63
2018-09-12T01:19:51.548Z,54.72
2018-09-12T01:22:21.237Z,55.10
2018-09-12T01:24:50.921Z,55.12
2018-09-12T01:27:20.641Z,55.40
2018-09-12T01:29:50.293Z,55.69
2018-09-12T01:32:19.943Z,55.64
2018-09-12T01:34:49.633Z,55.95
2018-09-12T01:37:19.312Z,56.00
2018-09-12T01:39:49.010Z,55.98
2018-09-12T01:42:18.671Z,56.19
2018-09-12T01:44:48.382Z,55.92
2018-09-12T01:47:18.036Z,56.01
2018-09-12T01:49:47.689Z,56.30
2018-09-12T01:52:17.749Z,56.48
2018-09-12T01:54:47.416Z,56.19
2018-09-12T01:57:17.105Z,56.75
2018-09-12T01:59:46.784Z,56.65
2018-09-12T02:02:16.472Z,56.79
2018-09-12T02:04:46.172Z,56.67
2018-09-12T02:07:15.857Z,56.89
2018-09-12T02:09:45.564Z,56.62
2018-09-12T02:12:15.265Z,56.49
2018-09-12T02:14:44.945Z,57.24
2018-09-12T02:17:14.664Z,57.56
2018-09-12T02:19:44.336Z,57.37
2018-09-12T02:22:14.126Z,57.93
2018-09-12T02:24:43.784Z,57.71
2018-09-12T02:27:13.497Z,57.48
2018-09-12T02:29:43.222Z,57.78
2018-09-12T02:32:12.909Z,58.78
2018-09-12T02:34:42.593Z,58.97
2018-09-12T02:37:12.292Z,59.18
2018-09-12T02:39:41.984Z,59.14
2018-09-12T02:42:11.334Z,58.89
2018-09-12T02:44:40.705Z,59.52
2018-09-12T02:47:15.273Z,59.17
2018-09-12T02:49:44.652Z,58.82
2018-09-12T02:52:14.020Z,58.79
2018-09-12T02:54:43.447Z,59.40
2018-09-12T02:57:12.931Z,58.86
2018-09-12T02:59:42.404Z,59.34
2018-09-12T03:02:12.141Z,59.37
2018-09-12T03:04:41.576Z,59.40
2018-09-12T03:07:10.997Z,59.67
2018-09-12T03:09:40.345Z,59.71
2018-09-12T03:12:09.716Z,59.50
2018-09-12T03:14:39.101Z,59.74
2018-09-12T03:17:08.474Z,59.61
2018-09-12T03:19:38.262Z,60.20
2018-09-12T03:22:08.037Z,60.78
2018-09-12T03:24:37.822Z,60.50
2018-09-12T03:27:07.579Z,60.00
2018-09-12T03:29:37.256Z,60.34
2018-09-12T03:32:07.073Z,60.57
2018-09-12T03:34:36.754Z,60.22
2018-09-12T03:37:06.520Z,61.23
2018-09-12T03:39:36.198Z,60.28
2018-09-12T03:42:05.908Z,60.18
2018-09-12T03:44:35.600Z,60.62
2018-09-12T03:47:05.265Z,60.50
2018-09-12T03:49:34.955Z,60.72
2018-09-12T03:52:04.632Z,60.34
2018-09-12T03:54:34.325Z,59.24
2018-09-12T03:57:03.988Z,59.70
2018-09-12T03:59:33.683Z,59.55
2018-09-12T04:02:03.384Z,59.81
2018-09-12T04:04:33.065Z,60.42
2018-09-12T04:07:02.767Z,60.25
2018-09-12T04:09:32.449Z,60.46
2018-09-12T04:12:02.149Z,60.88
2018-09-12T04:14:31.812Z,60.32
2018-09-12T04:17:02.562Z,59.83
2018-09-12T04:19:32.420Z,61.42
2018-09-12T04:22:02.148Z,61.02
2018-09-12T04:24:32.301Z,61.51
2018-09-12T04:27:02.014Z,61.76
2018-09-12T04:29:31.700Z,61.01
2018-09-12T04:32:01.449Z,60.71
2018-09-12T04:34:31.124Z,61.65
2018-09-12T04:37:00.761Z,61.97
2018-09-12T04:39:30.455Z,61.48
2018-09-12T04:42:00.183Z,60.93
2018-09-12T04:44:29.845Z,61.83
2018-09-12T04:46:59.730Z,61.59
2018-09-12T04:49:29.565Z,62.07
2018-09-12T04:51:59.224Z,62.03
2018-09-12T04:54:28.873Z,62.71
2018-09-12T04:56:58.584Z,62.52
2018-09-12T04:59:28.252Z,61.93
2018-09-12T05:01:57.920Z,63.06
2018-09-12T05:04:27.654Z,63.18
2018-09-12T05:06:57.329Z,63.68
2018-09-12T05:09:27.038Z,63.38
2018-09-12T05:11:56.750Z,63.64
2018-09-12T05:14:26.448Z,63.66
2018-09-12T05:16:56.157Z,63.37
2018-09-12T05:19:25.858Z,63.63
2018-09-12T05:21:55.594Z,63.69
2018-09-12T05:24:25.306Z,63.39
2018-09-12T05:26:55.007Z,64.13
2018-09-12T05:29:24.718Z,63.00
2018-09-12T05:31:54.418Z,62.80
2018-09-12T05:34:24.126Z,62.29
2018-09-12T05:36:53.808Z,63.61
2018-09-12T05:39:23.560Z,63.61
2018-09-12T05:41:53.287Z,64.03
2018-09-12T05:44:22.980Z,62.76
2018-09-12T05:46:52.694Z,63.64
2018-09-12T05:49:22.393Z,63.10
2018-09-12T05:51:52.136Z,63.04
2018-09-12T05:54:21.840Z,62.76
2018-09-12T05:56:51.600Z,62.75
2018-09-12T05:59:21.258Z,62.39
2018-09-12T06:01:50.961Z,62.02
2018-09-12T06:04:20.703Z,62.23
2018-09-12T06:06:50.448Z,62.04
2018-09-12T06:09:20.136Z,61.38
2018-09-12T06:11:49.822Z,61.58
2018-09-12T06:14:19.894Z,61.13
2018-09-12T06:16:49.665Z,61.39
2018-09-12T06:19:19.380Z,59.87
2018-09-12T06:21:49.109Z,59.40
2018-09-12T06:24:18.808Z,59.12
2018-09-12T06:26:48.521Z,58.92
2018-09-12T06:29:18.341Z,58.62
2018-09-12T06:31:48.015Z,58.68
2018-09-12T06:34:17.704Z,59.66
2018-09-12T06:36:47.456Z,59.27
2018-09-12T06:39:17.187Z,59.57
2018-09-12T06:41:46.912Z,60.61
2018-09-12T06:44:16.606Z,62.16
2018-09-12T06:46:46.325Z,62.61
2018-09-12T06:49:22.479Z,62.77
2018-09-12T06:51:52.657Z,64.07
2018-09-12T06:54:22.354Z,63.07
2018-09-12T06:56:52.177Z,62.71
2018-09-12T06:59:21.912Z,63.92
2018-09-12T07:01:51.632Z,63.66
2018-09-12T07:04:24.422Z,62.92
2018-09-12T07:06:54.111Z,62.43
2018-09-12T07:09:23.854Z,62.59
2018-09-12T07:11:53.567Z,63.28
2018-09-12T07:14:23.348Z,62.70
2018-09-12T07:16:53.064Z,62.73
2018-09-12T07:19:23.235Z,63.36
2018-09-12T07:21:53.096Z,63.26
2018-09-12T07:24:22.844Z,62.98
2018-09-12T07:26:52.585Z,63.11
2018-09-12T07:29:22.296Z,62.09
2018-09-12T07:31:51.973Z,63.33
2018-09-12T07:34:21.696Z,62.42
2018-09-12T07:36:51.640Z,63.88
2018-09-12T07:39:21.337Z,62.70
2018-09-12T07:41:51.154Z,62.45
2018-09-12T07:44:20.877Z,61.77
2018-09-12T07:46:50.588Z,62.37
2018-09-12T07:49:20.288Z,61.44
2018-09-12T07:51:49.984Z,61.90
2018-09-12T07:54:19.676Z,61.65
2018-09-12T07:56:49.361Z,60.86
2018-09-12T07:59:19.076Z,60.38
2018-09-12T08:01:48.781Z,60.49
2018-09-12T08:04:18.510Z,62.11
2018-09-12T08:06:48.285Z,60.98
2018-09-12T08:09:17.985Z,59.92
2018-09-12T08:11:47.709Z,60.50
2018-09-12T08:14:17.451Z,60.11
2018-09-12T08:16:47.151Z,59.32
2018-09-12T08:19:16.849Z,58.85
2018-09-12T08:21:46.577Z,59.33
2018-09-12T08:24:16.297Z,58.80
2018-09-12T08:26:46.016Z,57.68
2018-09-12T08:29:15.723Z,58.08
2018-09-12T08:31:45.497Z,58.31
2018-09-12T08:34:15.192Z,57.44
2018-09-12T08:36:44.890Z,57.31
2018-09-12T08:39:14.593Z,57.28
2018-09-12T08:41:44.333Z,56.02
2018-09-12T08:44:14.012Z,56.01
2018-09-12T08:46:43.725Z,56.69
2018-09-12T08:49:13.477Z,57.24
2018-09-12T08:51:43.186Z,57.26
2018-09-12T08:54:12.867Z,56.93
2018-09-12T08:56:42.606Z,56.10
2018-09-12T08:59:12.293Z,56.63
2018-09-12T09:01:42.052Z,56.23
2018-09-12T09:04:11.813Z,56.24
2018-09-12T09:06:41.458Z,56.10
2018-09-12T09:09:12.257Z,56.53
2018-09-12T09:11:41.953Z,56.87
2018-09-12T09:14:11.751Z,57.16
2018-09-12T09:16:41.432Z,56.21
2018-09-12T09:19:11.159Z,56.93
2018-09-12T09:21:40.866Z,55.49
2018-09-12T09:24:10.553Z,55.26
2018-09-12T09:26:40.280Z,54.71
2018-09-12T09:29:09.986Z,54.65
2018-09-12T09:31:39.681Z,55.81
2018-09-12T09:34:09.404Z,54.99
2018-09-12T09:36:39.094Z,55.48
2018-09-12T09:39:10.973Z,54.07
2018-09-12T09:41:40.986Z,55.22
2018-09-12T09:44:10.900Z,54.39
2018-09-12T09:46:40.745Z,54.46
2018-09-12T09:49:10.493Z,54.28
2018-09-12T09:51:40.186Z,54.64
2018-09-12T09:54:09.879Z,54.34
2018-09-12T09:56:39.593Z,54.91
2018-09-12T09:59:09.264Z,54.13
2018-09-12T10:01:44.189Z,54.41
2018-09-12T10:04:18.928Z,54.89
2018-09-12T10:06:53.733Z,54.50
2018-09-12T10:09:28.556Z,53.45
2018-09-12T10:11:58.450Z,53.75
2018-09-12T10:14:28.365Z,52.30
2018-09-12T10:16:58.096Z,51.22
2018-09-12T10:19:27.837Z,51.93
2018-09-12T10:21:57.736Z,52.28
2018-09-12T10:24:27.521Z,51.80
2018-09-12T10:26:57.632Z,51.66
2018-09-12T10:29:27.331Z,51.43
2018-09-12T10:31:57.021Z,51.31
2018-09-12T10:34:26.731Z,50.97
2018-09-12T10:36:56.460Z,51.33
2018-09-12T10:39:26.204Z,51.26
2018-09-12T10:41:55.986Z,50.93
2018-09-12T10:44:25.711Z,51.84
2018-09-12T10:46:55.418Z,51.96
2018-09-12T10:49:25.134Z,51.33
2018-09-12T10:51:54.837Z,51.25
2018-09-12T10:54:24.595Z,49.43
2018-09-12T10:56:54.304Z,48.75
2018-09-12T10:59:24.015Z,49.17
2018-09-12T11:01:53.745Z,47.52
2018-09-12T11:04:23.463Z,47.60
2018-09-12T11:06:53.607Z,46.82
2018-09-12T11:09:23.301Z,46.60
2018-09-12T11:11:53.095Z,46.33
2018-09-12T11:14:22.791Z,46.62
2018-09-12T11:16:52.509Z,44.88
2018-09-12T11:19:22.248Z,45.57
2018-09-12T11:21:52.080Z,45.13
2018-09-12T11:24:21.776Z,44.96
2018-09-12T11:26:51.476Z,44.88
2018-09-12T11:29:21.264Z,43.71
2018-09-12T11:31:50.964Z,43.15
2018-09-12T11:34:20.766Z,42.58
2018-09-12T11:36:50.448Z,43.47
2018-09-12T11:39:20.174Z,42.73
2018-09-12T11:41:49.867Z,42.21
2018-09-12T11:44:19.565Z,42.89
2018-09-12T11:46:49.268Z,44.56
2018-09-12T11:49:18.961Z,45.16
2018-09-12T11:51:48.704Z,46.05
2018-09-12T11:54:18.428Z,45.46
2018-09-12T11:56:48.193Z,45.33
2018-09-12T11:59:17.896Z,45.99
2018-09-12T12:01:47.643Z,47.76
2018-09-12T12:04:17.947Z,47.42
2018-09-12T12:06:47.757Z,48.54
2018-09-12T12:09:17.514Z,48.35
2018-09-12T12:11:47.233Z,48.39
2018-09-12T12:14:16.932Z,47.29
2018-09-12T12:16:46.737Z,48.09
2018-09-12T12:19:16.396Z,47.46
2018-09-12T12:21:46.144Z,46.08
2018-09-12T12:24:15.847Z,45.71
2018-09-12T12:26:45.613Z,46.08
2018-09-12T12:29:15.584Z,46.41
2018-09-12T12:31:45.309Z,46.33
2018-09-12T12:34:16.060Z,46.79
2018-09-12T12:36:45.785Z,47.26
2018-09-12T12:39:15.518Z,46.35
2018-09-12T12:41:45.261Z,47.18
2018-09-12T12:44:14.977Z,47.06
2018-09-12T12:46:44.698Z,46.82
2018-09-12T12:49:14.395Z,47.41
2018-09-12T12:51:44.119Z,48.14
2018-09-12T12:54:13.810Z,48.22
2018-09-12T12:56:43.501Z,47.13
2018-09-12T12:59:13.277Z,46.94
2018-09-12T13:01:42.993Z,47.61
2018-09-12T13:04:12.687Z,49.41
2018-09-12T13:06:42.409Z,48.84
2018-09-12T13:09:12.097Z,47.72
2018-09-12T13:11:41.846Z,47.12
2018-09-12T13:14:11.574Z,47.84
2018-09-12T13:16:41.312Z,48.04
2018-09-12T13:19:11.000Z,48.07
2018-09-12T13:21:40.807Z,47.49
2018-09-12T13:24:10.423Z,48.95
2018-09-12T13:26:40.101Z,47.84
2018-09-12T13:29:09.907Z,48.78
2018-09-12T13:31:39.599Z,48.21
2018-09-12T13:34:09.389Z,48.72
2018-09-12T13:36:39.099Z,49.45
2018-09-12T13:39:15.730Z,49.10
2018-09-12T13:41:45.444Z,49.96
2018-09-12T13:44:15.498Z,49.75
2018-09-12T13:46:45.197Z,49.04
2018-09-12T13:49:14.889Z,48.05
2018-09-12T13:51:44.628Z,49.69
2018-09-12T13:54:14.313Z,50.25
2018-09-12T13:56:44.135Z,50.20
2018-09-12T13:59:13.773Z,49.82
2018-09-12T14:01:43.510Z,49.30
2018-09-12T14:04:13.208Z,50.38
2018-09-12T14:06:42.941Z,50.10
2018-09-12T14:09:12.820Z,50.53
2018-09-12T14:11:42.591Z,50.63
2018-09-12T14:14:12.355Z,51.68
2018-09-12T14:16:42.101Z,52.28
2018-09-12T14:19:11.800Z,52.45
2018-09-12T14:21:41.521Z,53.52
2018-09-12T14:24:11.193Z,53.63
2018-09-12T14:26:40.882Z,54.65
2018-09-12T14:29:10.630Z,55.00
2018-09-12T14:31:40.324Z,55.83
2018-09-12T14:34:10.198Z,54.96
2018-09-12T14:36:39.889Z,55.79
2018-09-12T14:39:10.407Z,55.66
2018-09-12T14:41:40.324Z,56.53
2018-09-12T14:44:10.045Z,56.41
2018-09-12T14:46:39.744Z,57.16
2018-09-12T14:49:09.434Z,57.49
2018-09-12T14:51:39.144Z,57.57
2018-09-12T14:54:08.851Z,58.52
2018-09-12T14:56:38.540Z,58.26
2018-09-12T14:59:08.504Z,58.78
2018-09-12T15:01:38.188Z,59.22
2018-09-12T15:04:07.913Z,59.00
2018-09-12T15:06:37.647Z,59.28
2018-09-12T15:09:10.275Z,59.87
2018-09-12T15:11:40.014Z,59.55
2018-09-12T15:14:10.112Z,60.29
2018-09-12T15:16:40.030Z,60.55
2018-09-12T15:19:09.792Z,59.62
2018-09-12T15:21:39.524Z,60.03
2018-09-12T15:24:09.257Z,59.82
2018-09-12T15:26:38.961Z,60.03
2018-09-12T15:29:08.817Z,60.15
2018-09-12T15:31:38.512Z,59.58
2018-09-12T15:34:08.244Z,59.44
2018-09-12T15:36:37.950Z,59.69
2018-09-12T15:39:09.912Z,59.07
2018-09-12T15:41:39.722Z,58.47
2018-09-12T15:44:15.967Z,59.28
2018-09-12T15:46:45.677Z,59.09
2018-09-12T15:49:15.422Z,59.75
2018-09-12T15:51:45.186Z,59.35
2018-09-12T15:54:14.876Z,59.26
2018-09-12T15:56:44.623Z,59.58
2018-09-12T15:59:14.348Z,59.56
2018-09-12T16:01:44.077Z,59.91
2018-09-12T16:04:13.771Z,60.33
2018-09-12T16:06:43.505Z,60.53
2018-09-12T16:09:13.292Z,60.38
2018-09-12T16:11:42.969Z,60.62
2018-09-12T16:14:12.725Z,60.76
2018-09-12T16:16:42.517Z,60.91
2018-09-12T16:19:12.466Z,61.37
2018-09-12T16:21:42.177Z,61.25
2018-09-12T16:24:11.878Z,61.25
2018-09-12T16:26:41.600Z,61.61
2018-09-12T16:29:11.377Z,61.62
2018-09-12T16:31:41.113Z,61.33
2018-09-12T16:34:10.803Z,61.60
2018-09-12T16:36:40.642Z,61.80
2018-09-12T16:39:12.205Z,61.86
2018-09-12T16:41:42.251Z,61.78
2018-09-12T16:44:11.969Z,61.47
2018-09-12T16:46:41.690Z,61.38
2018-09-12T16:49:11.397Z,61.78
2018-09-12T16:51:41.141Z,61.48
2018-09-12T16:54:12.335Z,62.00
2018-09-12T16:56:42.133Z,62.09
2018-09-12T16:59:11.853Z,62.10
2018-09-12T17:01:41.556Z,62.29
2018-09-12T17:04:11.278Z,62.39
2018-09-12T17:06:40.978Z,62.44
2018-09-12T17:09:11.661Z,62.66
2018-09-12T17:11:41.352Z,63.04
2018-09-12T17:14:11.183Z,63.07
2018-09-12T17:16:40.817Z,63.23
2018-09-12T17:19:10.522Z,63.65
2018-09-12T17:21:40.244Z,63.66
2018-09-12T17:24:09.976Z,63.34
2018-09-12T17:26:39.723Z,63.72
2018-09-12T17:29:09.444Z,64.10
2018-09-12T17:31:39.147Z,63.67
2018-09-12T17:34:08.898Z,64.76
2018-09-12T17:36:38.649Z,64.49
2018-09-12T17:39:09.553Z,64.26
2018-09-12T17:41:39.402Z,64.59
2018-09-12T17:44:09.186Z,64.88
2018-09-12T17:46:38.905Z,65.05
2018-09-12T17:49:08.656Z,65.57
2018-09-12T17:51:38.398Z,65.00
2018-09-12T17:54:08.087Z,65.13
2018-09-12T17:56:37.880Z,65.89
2018-09-12T17:59:07.699Z,66.00
2018-09-12T18:01:37.454Z,66.20
2018-09-12T18:04:07.209Z,65.89
2018-09-12T18:06:36.938Z,66.23
2018-09-12T18:09:08.695Z,66.45
2018-09-12T18:11:38.425Z,66.07
2018-09-12T18:14:08.156Z,66.34
2018-09-12T18:16:37.915Z,66.75
2018-09-12T18:19:07.634Z,67.05
2018-09-12T18:21:37.442Z,66.76
2018-09-12T18:24:07.340Z,66.55
2018-09-12T18:26:37.100Z,67.41
2018-09-12T18:29:06.924Z,67.45
2018-09-12T18:31:36.699Z,67.36
2018-09-12T18:34:06.589Z,67.54
2018-09-12T18:36:36.304Z,67.46
2018-09-12T18:39:08.717Z,67.33
2018-09-12T18:41:38.495Z,67.23
2018-09-12T18:44:08.659Z,67.21
2018-09-12T18:46:38.368Z,67.44
2018-09-12T18:49:08.120Z,68.52
2018-09-12T18:51:37.820Z,67.61
2018-09-12T18:54:07.679Z,68.14
2018-09-12T18:56:37.630Z,68.20
2018-09-12T18:59:07.343Z,68.62
2018-09-12T19:01:37.108Z,69.63
2018-09-12T19:04:06.829Z,69.00
2018-09-12T19:06:36.632Z,69.59
2018-09-12T19:09:08.844Z,70.50
2018-09-12T19:11:38.541Z,70.45
2018-09-12T19:14:08.357Z,70.64
2018-09-12T19:16:38.056Z,69.89
2018-09-12T19:19:07.808Z,70.61
2018-09-12T19:21:37.519Z,70.58
2018-09-12T19:24:07.653Z,69.56
2018-09-12T19:26:37.417Z,69.72
2018-09-12T19:29:07.121Z,69.29
2018-09-12T19:31:36.920Z,69.71
2018-09-12T19:34:06.636Z,70.14
2018-09-12T19:36:36.324Z,69.28
2018-09-12T19:39:07.744Z,69.38
2018-09-12T19:41:37.544Z,69.78
2018-09-12T19:44:07.258Z,70.72
2018-09-12T19:46:36.944Z,70.08
2018-09-12T19:49:06.705Z,70.72
2018-09-12T19:51:36.412Z,70.51
2018-09-12T19:54:06.169Z,70.50
2018-09-12T19:56:35.924Z,70.34
2018-09-12T19:59:05.652Z,70.87
2018-09-12T20:01:35.414Z,70.89
2018-09-12T20:04:05.221Z,71.32
2018-09-12T20:06:34.925Z,71.48
2018-09-12T20:09:06.370Z,71.17
2018-09-12T20:11:36.077Z,71.40
2018-09-12T20:14:05.852Z,71.63
2018-09-12T20:16:35.874Z,71.57
2018-09-12T20:19:05.637Z,71.25
2018-09-12T20:21:35.478Z,71.59
2018-09-12T20:24:05.198Z,71.55
2018-09-12T20:26:35.265Z,71.44
2018-09-12T20:29:04.988Z,71.10
2018-09-12T20:31:34.685Z,70.95
2018-09-12T20:34:04.440Z,71.32
2018-09-12T20:36:34.131Z,71.79
2018-09-12T20:39:03.992Z,71.74
2018-09-12T20:41:33.657Z,71.83
2018-09-12T20:44:03.376Z,72.06
2018-09-12T20:46:33.055Z,71.81
2018-09-12T20:49:02.857Z,71.42
2018-09-12T20:51:32.562Z,70.94
2018-09-12T20:54:02.311Z,70.62
2018-09-12T20:56:32.012Z,71.18
2018-09-12T20:59:01.701Z,70.68
2018-09-12T21:01:31.430Z,71.22
2018-09-12T21:04:01.127Z,71.71
2018-09-12T21:06:30.800Z,71.32
2018-09-12T21:09:00.561Z,70.51
2018-09-12T21:11:30.296Z,70.17
2018-09-12T21:13:59.979Z,70.45
2018-09-12T21:16:29.692Z,70.13
2018-09-12T21:18:59.378Z,69.82
2018-09-12T21:21:29.079Z,69.07
2018-09-12T21:23:58.753Z,69.74
2018-09-12T21:26:28.788Z,69.31
2018-09-12T21:28:58.532Z,68.97
2018-09-12T21:31:28.247Z,68.43
2018-09-12T21:33:57.953Z,68.64
2018-09-12T21:36:27.651Z,68.67
2018-09-12T21:38:57.333Z,69.04
2018-09-12T21:41:27.120Z,69.04
2018-09-12T21:43:56.808Z,68.87
2018-09-12T21:46:26.485Z,68.60
2018-09-12T21:48:56.207Z,68.12
2018-09-12T21:51:25.888Z,67.69
2018-09-12T21:53:55.588Z,68.05
2018-09-12T21:56:25.313Z,68.16
2018-09-12T21:58:54.987Z,67.84
2018-09-12T22:01:25.521Z,67.92
2018-09-12T22:03:55.489Z,68.24
2018-09-12T22:06:25.219Z,68.41
2018-09-12T22:08:54.898Z,68.04
2018-09-12T22:11:24.576Z,68.23
2018-09-12T22:13:54.312Z,68.16
2018-09-12T22:16:23.975Z,68.24
2018-09-12T22:18:53.669Z,67.61
2018-09-12T22:21:23.407Z,68.19
2018-09-12T22:23:53.146Z,67.37
2018-09-12T22:26:22.832Z,68.17
2018-09-12T22:28:52.526Z,67.76
2018-09-12T22:31:22.220Z,67.97
2018-09-12T22:33:51.997Z,68.14
2018-09-12T22:36:21.691Z,67.87
2018-09-12T22:38:51.356Z,68.29
2018-09-12T22:41:21.055Z,68.52
2018-09-12T22:43:50.796Z,68.51
2018-09-12T22:46:20.479Z,67.94
2018-09-12T22:48:50.176Z,67.79
2018-09-12T22:51:19.870Z,67.78
2018-09-12T22:53:49.537Z,68.73
2018-09-12T22:56:19.257Z,68.06
2018-09-12T22:58:48.921Z,68.26
2018-09-12T23:01:19.697Z,68.81
2018-09-12T23:03:49.373Z,67.93
2018-09-12T23:06:19.065Z,68.13
2018-09-12T23:08:48.846Z,68.19
2018-09-12T23:11:18.509Z,68.74
2018-09-12T23:13:48.212Z,68.96
2018-09-12T23:16:17.880Z,69.26
2018-09-12T23:18:47.565Z,69.08
2018-09-12T23:21:17.281Z,69.59
2018-09-12T23:23:46.941Z,70.48
2018-09-12T23:26:16.603Z,71.20
2018-09-12T23:28:46.286Z,72.12
2018-09-12T23:31:15.929Z,72.25
2018-09-12T23:33:45.612Z,71.66
2018-09-12T23:36:15.280Z,72.07
2018-09-12T23:38:44.916Z,72.42
2018-09-12T23:41:14.576Z,73.19
2018-09-12T23:43:44.256Z,73.08
2018-09-12T23:46:13.906Z,73.14
2018-09-12T23:48:43.576Z,73.50
2018-09-12T23:51:13.285Z,73.47
2018-09-12T23:53:42.963Z,73.36
2018-09-12T23:56:12.612Z,73.18
2018-09-12T23:58:42.334Z,74.27
